sensor_id;sensor_type;location;lat;lon;timestamp;pressure;altitude;pressure_sealevel;temperature;humidity
15558;BME280;7880;50.110;9.372;2023-04-25T00:02:22;7.265384145599091;;;7.187;100.0
15558;BME280;7880;50.110;9.372;2023-04-25T00:07:25;7.240173579100519;;;7.187;100.0
15558;BME280;7880;50.110;9.372;2023-04-25T00:12:29;7.189752467931248;;;7.125;100.0
15558;BME280;7880;50.110;9.372;2023-04-25T00:17:35;7.144373492762679;;;7.062;100.0
15558;BME280;7880;50.110;9.372;2023-04-25T00:22:45;7.109078750596382;;;7.062;100.0
15558;BME280;7880;50.110;9.372;2023-04-25T00:27:51;6.9628578278294295;;;6.937;100.0
15558;BME280;7880;50.110;9.372;2023-04-25T00:33:07;6.872100136807421;;;6.812;100.0
15558;BME280;7880;50.110;9.372;2023-04-25T00:38:12;6.801510886760662;;;6.75;100.0
15558;BME280;7880;50.110;9.372;2023-04-25T00:43:25;6.8368055046536025;;;6.812;100.0
15558;BME280;7880;50.110;9.372;2023-04-25T00:48:33;6.796468799654394;;;6.75;100.0
15558;BME280;7880;50.110;9.372;2023-04-25T00:53:34;6.730921693757409;;;6.687;100.0
15558;BME280;7880;50.110;9.372;2023-04-25T00:58:38;6.665374637045898;;;6.625;100.0
15558;BME280;7880;50.110;9.372;2023-04-25T01:03:53;6.675458796415478;;;6.625;100.0
15558;BME280;7880;50.110;9.372;2023-04-25T01:08:49;6.614953857660294;;;6.562;100.0
15558;BME280;7880;50.110;9.372;2023-04-25T01:13:52;6.630080088420073;;;6.562;100.0
15558;BME280;7880;50.110;9.372;2023-04-25T01:18:58;6.625038011209108;;;6.562;100.0
15558;BME280;7880;50.110;9.372;2023-04-25T01:24:05;6.377976584393764;;;6.312;100.0
15558;BME280;7880;50.110;9.372;2023-04-25T01:29:07;6.3275559708999936;;;6.312;100.0
15558;BME280;7880;50.110;9.372;2023-04-25T01:34:11;6.347724212805042;;;6.312;100.0
15558;BME280;7880;50.110;9.372;2023-04-25T01:39:16;6.388060710584978;;;6.312;100.0
15558;BME280;7880;50.110;9.372;2023-04-25T01:44:19;6.3275559708999936;;;6.25;100.0
15558;BME280;7880;50.110;9.372;2023-04-25T01:49:22;6.388060710584978;;;6.312;100.0
15558;BME280;7880;50.110;9.372;2023-04-25T01:54:27;6.418313096143538;;;6.312;100.0
15558;BME280;7880;50.110;9.372;2023-04-25T01:59:30;6.4586496265197635;;;6.375;100.0
15558;BME280;7880;50.110;9.372;2023-04-25T02:04:40;6.438481359003345;;;6.375;100.0
15558;BME280;7880;50.110;9.372;2023-04-25T02:09:38;6.418313096143538;;;6.375;100.0
15558;BME280;7880;50.110;9.372;2023-04-25T02:14:43;6.408228966459864;;;6.312;100.0
15558;BME280;7880;50.110;9.372;2023-04-25T02:19:49;6.408228966459864;;;6.312;100.0
15558;BME280;7880;50.110;9.372;2023-04-25T02:24:56;6.4132710311561825;;;6.312;100.0
15558;BME280;7880;50.110;9.372;2023-04-25T02:29:57;6.307387733651558;;;6.25;100.0
15558;BME280;7880;50.110;9.372;2023-04-25T02:35:04;6.282177443639375;;;6.25;100.0
15558;BME280;7880;50.110;9.372;2023-04-25T02:40:08;6.3527662740089;;;6.312;100.0
15558;BME280;7880;50.110;9.372;2023-04-25T02:45:11;6.31242979252711;;;6.312;100.0
15558;BME280;7880;50.110;9.372;2023-04-25T02:50:20;6.25192510522902;;;6.25;100.0
15558;BME280;7880;50.110;9.372;2023-04-25T02:55:31;6.272093329671771;;;6.25;100.0
15558;BME280;7880;50.110;9.372;2023-04-25T03:00:36;6.267051273124525;;;6.25;100.0
15558;BME280;7880;50.110;9.372;2023-04-25T03:05:39;6.31242979252711;;;6.25;100.0
15558;BME280;7880;50.110;9.372;2023-04-25T03:10:45;6.307387733651558;;;6.25;100.0
15558;BME280;7880;50.110;9.372;2023-04-25T03:15:49;6.307387733651558;;;6.25;100.0
15558;BME280;7880;50.110;9.372;2023-04-25T03:19:35;6.287219501059735;;;6.25;100.0
15558;BME280;7880;50.110;9.372;2023-04-25T03:24:55;6.272093329671771;;;6.25;100.0
15558;BME280;7880;50.110;9.372;2023-04-25T03:29:44;6.29730361677357;;;6.25;100.0
15558;BME280;7880;50.110;9.372;2023-04-25T03:34:48;6.388060710584978;;;6.312;100.0
15558;BME280;7880;50.110;9.372;2023-04-25T03:39:52;6.377976584393764;;;6.312;100.0
15558;BME280;7880;50.110;9.372;2023-04-25T03:44:55;6.307387733651558;;;6.25;100.0
15558;BME280;7880;50.110;9.372;2023-04-25T03:50:23;6.216630723659182;;;6.187;100.0
15558;BME280;7880;50.110;9.372;2023-04-25T03:55:05;6.277135386510054;;;6.187;100.0
15558;BME280;7880;50.110;9.372;2023-04-25T04:00:13;6.23679893995286;;;6.187;100.0
15558;BME280;7880;50.110;9.372;2023-04-25T04:05:11;6.151084052864462;;;6.125;100.0
15558;BME280;7880;50.110;9.372;2023-04-25T04:10:15;6.186378407949815;;;6.125;100.0
15558;BME280;7880;50.110;9.372;2023-04-25T04:15:20;6.0956215236859865;;;6.062;100.0
15558;BME280;7880;50.110;9.372;2023-04-25T04:20:24;6.100663570337929;;;6.062;100.0
15558;BME280;7880;50.110;9.372;2023-04-25T04:25:31;5.8989819312701;;;5.875;100.0
15558;BME280;7880;50.110;9.372;2023-04-25T04:30:39;5.848561594262719;;;5.875;100.0
15558;BME280;7880;50.110;9.372;2023-04-25T04:35:38;5.888897861540317;;;5.875;100.0
15558;BME280;7880;50.110;9.372;2023-04-25T04:40:43;5.8536036266537845;;;5.812;100.0
15558;BME280;7880;50.110;9.372;2023-04-25T04:45:48;5.793099257169525;;;5.75;100.0
15558;BME280;7880;50.110;9.372;2023-04-25T04:50:52;5.712426829716423;;;5.687;100.0
15558;BME280;7880;50.110;9.372;2023-04-25T04:55:57;5.702342781523475;;;5.687;100.0
15558;BME280;7880;50.110;9.372;2023-04-25T05:01:03;5.712426829716423;;;5.687;100.0
15558;BME280;7880;50.110;9.372;2023-04-25T05:06:07;5.626712457183748;;;5.687;100.0
15558;BME280;7880;50.110;9.372;2023-04-25T05:11:12;5.631754476769129;;;5.625;100.0
15558;BME280;7880;50.110;9.372;2023-04-25T05:16:14;5.6468805372715;;;5.625;100.0
15558;BME280;7880;50.110;9.372;2023-04-25T05:21:18;5.535956154414452;;;5.562;100.0
15558;BME280;7880;50.110;9.372;2023-04-25T05:26:24;5.3796538540220356;;;5.375;100.0
15558;BME280;7880;50.110;9.372;2023-04-25T05:31:27;5.238477823097492;;;5.25;100.0
15558;BME280;7880;50.110;9.372;2023-04-25T05:36:32;5.198141856171423;;;5.187;100.0
15558;BME280;7880;50.110;9.372;2023-04-25T05:41:35;5.193099861615337;;;5.187;100.0
15558;BME280;7880;50.110;9.372;2023-04-25T05:47:18;5.036798174731667;;;5.062;100.0
15558;BME280;7880;50.110;9.372;2023-04-25T05:52:23;5.1477219237072855;;;5.062;100.0
15558;BME280;7880;50.110;9.372;2023-04-25T05:57:34;5.253603815496899;;;5.187;100.0
15558;BME280;7880;50.110;9.372;2023-04-25T06:02:33;5.248561817739391;;;5.187;100.0
15558;BME280;7880;50.110;9.372;2023-04-25T06:07:34;5.278813808650011;;;5.25;100.0
15558;BME280;7880;50.110;9.372;2023-04-25T06:12:39;5.213267841585912;;;5.187;100.0
15558;BME280;7880;50.110;9.372;2023-04-25T06:17:45;5.339317821903387;;;5.25;100.0
15558;BME280;7880;50.110;9.372;2023-04-25T06:22:47;5.253603815496899;;;5.187;100.0
15558;BME280;7880;50.110;9.372;2023-04-25T06:27:53;5.3090658100380095;;;5.312;100.0
15558;BME280;7880;50.110;9.372;2023-04-25T06:32:57;5.515788099938073;;;5.375;100.0
15558;BME280;7880;50.110;9.372;2023-04-25T06:38:03;5.591418328235159;;;5.562;100.0
15558;BME280;7880;50.110;9.372;2023-04-25T06:43:10;5.641838516813005;;;5.687;100.0
15558;BME280;7880;50.110;9.372;2023-04-25T06:48:13;5.939318221830763;;;5.875;100.0
15558;BME280;7880;50.110;9.372;2023-04-25T06:53:18;5.959486374096014;;;5.937;100.0
15558;BME280;7880;50.110;9.372;2023-04-25T06:58:23;6.019990858831443;;;6.0;100.0
15558;BME280;7880;50.110;9.372;2023-04-25T07:03:31;6.009906775131822;;;6.0;100.0
15558;BME280;7880;50.110;9.372;2023-04-25T07:08:33;5.878813792974688;;;5.875;100.0
15558;BME280;7880;50.110;9.372;2023-04-25T07:13:38;5.9443602594605185;;;6.0;100.0
15558;BME280;7880;50.110;9.372;2023-04-25T07:18:43;6.120831759856083;;;6.062;100.0
15558;BME280;7880;50.110;9.372;2023-04-25T07:23:47;6.216630723659182;;;6.187;100.0
15558;BME280;7880;50.110;9.372;2023-04-25T07:28:52;6.014948816836113;;;6.062;100.0
15558;BME280;7880;50.110;9.372;2023-04-25T07:33:55;6.388060710584978;;;6.312;100.0
15558;BME280;7880;50.110;9.372;2023-04-25T07:38:59;6.448565492179478;;;6.437;100.0
15558;BME280;7880;50.110;9.372;2023-04-25T07:44:02;6.4586496265197635;;;6.5;100.0
15558;BME280;7880;50.110;9.372;2023-04-25T07:49:06;6.504028245457448;;;6.562;100.0
15558;BME280;7880;50.110;9.372;2023-04-25T07:54:17;6.7510900287947155;;;6.75;100.0
15558;BME280;7880;50.110;9.372;2023-04-25T07:59:15;6.781342540081823;;;6.875;100.0
15558;BME280;7880;50.110;9.372;2023-04-25T08:04:20;6.937647348642349;;;7.0;100.0
15558;BME280;7880;50.110;9.372;2023-04-25T08:09:25;6.791426712839166;;;6.937;100.0
15558;BME280;7880;50.110;9.372;2023-04-25T08:14:31;7.114120855747023;;;7.062;100.0
15558;BME280;7880;50.110;9.372;2023-04-25T08:19:33;7.164541923260549;;;7.25;100.0
15558;BME280;7880;50.110;9.372;2023-04-25T08:23:49;7.315805300424108;;;7.375;100.0
15558;BME280;7880;50.110;9.372;2023-04-25T08:28:54;7.446900439175079;;;7.5;100.0
15558;BME280;7880;50.110;9.372;2023-04-25T08:34:01;7.209920908906497;;;7.375;100.0
15558;BME280;7880;50.110;9.372;2023-04-25T08:39:03;7.230089354538359;;;7.312;100.0
15558;BME280;7880;50.110;9.372;2023-04-25T08:44:10;7.290594719373621;;;7.25;100.0
15558;BME280;7880;50.110;9.372;2023-04-25T08:49:13;7.537658727407688;;;7.5;100.0
15558;BME280;7880;50.110;9.372;2023-04-25T08:54:17;7.618332840554649;;;7.562;100.0
15558;BME280;7880;50.110;9.372;2023-04-25T08:59:22;7.270426259771921;;;7.375;100.0
15558;BME280;7880;50.110;9.372;2023-04-25T09:04:30;7.7242177271284165;;;7.625;100.0
15558;BME280;7880;50.110;9.372;2023-04-25T09:09:36;7.905734974145889;;;8.0;100.0
15558;BME280;7880;50.110;9.372;2023-04-25T09:14:39;7.704049167409539;;;7.75;100.0
15558;BME280;7880;50.110;9.372;2023-04-25T09:19:46;7.663712061941624;;;7.75;100.0
15558;BME280;7880;50.110;9.372;2023-04-25T09:24:49;7.58808003939339;;;7.562;100.0
15558;BME280;7880;50.110;9.372;2023-04-25T09:29:57;8.072126115259016;;;8.0;100.0
15558;BME280;7880;50.110;9.372;2023-04-25T09:34:56;8.112463409319753;;;8.125;100.0
15558;BME280;7880;50.110;9.372;2023-04-25T09:40:05;8.50575300255441;;;8.5;100.0
15558;BME280;7880;50.110;9.372;2023-04-25T09:45:06;8.283897116879235;;;8.375;100.0
15558;BME280;7880;50.110;9.372;2023-04-25T09:50:14;8.3645719192049;;;8.437;100.0
15558;BME280;7880;50.110;9.372;2023-04-25T09:55:14;8.651976507995277;;;8.562;100.0
15558;BME280;7880;50.110;9.372;2023-04-25T10:00:19;8.258686256431975;;;8.375;100.0
15558;BME280;7880;50.110;9.372;2023-04-25T10:05:23;8.460373343736865;;;8.437;100.0
15558;BME280;7880;50.110;9.372;2023-04-25T10:10:29;8.556174873333656;;;8.625;100.0
15558;BME280;7880;50.110;9.372;2023-04-25T10:15:35;8.445246796036372;;;8.562;100.0
15558;BME280;7880;50.110;9.372;2023-04-25T10:20:45;8.238517573312857;;;8.312;100.0
15558;BME280;7880;50.110;9.372;2023-04-25T10:25:45;8.420035889022984;;;8.375;100.0
15558;BME280;7880;50.110;9.372;2023-04-25T10:30:58;8.455331160878995;;;8.5;100.0
15558;BME280;7880;50.110;9.372;2023-04-25T10:35:58;8.425078069843584;;;8.375;100.0
15558;BME280;7880;50.110;9.372;2023-04-25T10:41:03;8.188095885887742;;;8.187;100.0
15558;BME280;7880;50.110;9.372;2023-04-25T10:46:16;8.334318859601627;;;8.375;100.0
15558;BME280;7880;50.110;9.372;2023-04-25T10:51:16;8.172969385335454;;;8.187;100.0
15558;BME280;7880;50.110;9.372;2023-04-25T10:56:24;8.107421246543527;;;8.125;100.0
15558;BME280;7880;50.110;9.372;2023-04-25T11:01:24;8.031788839824731;;;8.062;100.0
15558;BME280;7880;50.110;9.372;2023-04-25T11:06:37;7.880524222837994;;;7.937;100.0
15558;BME280;7880;50.110;9.372;2023-04-25T11:11:31;7.925903580430895;;;7.937;100.0
15558;BME280;7880;50.110;9.372;2023-04-25T11:16:41;8.31415015902021;;;8.25;100.0
15558;BME280;7880;50.110;9.372;2023-04-25T11:21:41;8.147758556902408;;;8.187;100.0
15558;BME280;7880;50.110;9.372;2023-04-25T11:26:53;8.12254773574532;;;8.187;100.0
15558;BME280;7880;50.110;9.372;2023-04-25T11:32:02;8.067083954811096;;;8.125;100.0
15558;BME280;7880;50.110;9.372;2023-04-25T11:37:14;8.193138053320581;;;8.125;100.0
15558;BME280;7880;50.110;9.372;2023-04-25T11:42:11;8.556174873333656;;;8.5;100.0
15558;BME280;7880;50.110;9.372;2023-04-25T11:47:05;8.445246796036372;;;8.562;100.0
15558;BME280;7880;50.110;9.372;2023-04-25T11:52:17;8.435162432357902;;;8.437;100.0
15558;BME280;7880;50.110;9.372;2023-04-25T11:57:19;8.273812771827215;;;8.312;100.0
15558;BME280;7880;50.110;9.372;2023-04-25T12:02:25;8.500710817077197;;;8.5;100.0
15558;BME280;7880;50.110;9.372;2023-04-25T12:07:29;8.601554581918753;;;8.625;99.15896171676305
15558;BME280;7880;50.110;9.372;2023-04-25T12:12:32;8.445246796036372;;;8.5;100.0
15558;BME280;7880;50.110;9.372;2023-04-25T12:17:33;8.29902363664005;;;8.375;100.0
15558;BME280;7880;50.110;9.372;2023-04-25T12:22:37;8.29902363664005;;;8.312;100.0
15558;BME280;7880;50.110;9.372;2023-04-25T12:27:44;8.102379084058338;;;8.125;100.0
15558;BME280;7880;50.110;9.372;2023-04-25T12:32:49;8.006578052137048;;;8.0;100.0
15558;BME280;7880;50.110;9.372;2023-04-25T12:37:57;8.258686256431975;;;8.187;100.0
15558;BME280;7880;50.110;9.372;2023-04-25T12:42:56;8.334318859601627;;;8.312;100.0
15558;BME280;7880;50.110;9.372;2023-04-25T12:48:00;8.208264557365329;;;8.25;100.0
15558;BME280;7880;50.110;9.372;2023-04-25T12:53:04;8.243559743656078;;;8.25;100.0
15558;BME280;7880;50.110;9.372;2023-04-25T12:58:10;7.890608522488037;;;7.937;99.6572465083211
15558;BME280;7880;50.110;9.372;2023-04-25T13:03:14;8.21330672596232;;;8.125;100.0
15558;BME280;7880;50.110;9.372;2023-04-25T13:08:19;8.12758989939466;;;8.187;98.88731390664519
15558;BME280;7880;50.110;9.372;2023-04-25T13:13:23;8.162885053089122;;;8.187;100.0
15558;BME280;7880;50.110;9.372;2023-04-25T13:18:26;8.092294759961078;;;8.125;100.0
15558;BME280;7880;50.110;9.372;2023-04-25T13:23:32;8.162885053089122;;;8.125;99.98292982533744
15558;BME280;7880;50.110;9.372;2023-04-25T13:28:01;8.193138053320581;;;8.187;100.0
15558;BME280;7880;50.110;9.372;2023-04-25T13:33:07;8.389782810211182;;;8.375;98.61364539172976
15558;BME280;7880;50.110;9.372;2023-04-25T13:38:10;8.34944538809359;;;8.375;98.7533044336532
15558;BME280;7880;50.110;9.372;2023-04-25T13:43:19;8.420035889022984;;;8.375;99.95861825969835
15558;BME280;7880;50.110;9.372;2023-04-25T13:48:19;8.450288978312164;;;8.437;95.86135501672041
15558;BME280;7880;50.110;9.372;2023-04-25T13:53:25;8.420035889022984;;;8.437;92.27658748855829
15558;BME280;7880;50.110;9.372;2023-04-25T13:58:35;8.742736048274674;;;8.812;93.15743479505197
15558;BME280;7880;50.110;9.372;2023-04-25T14:03:31;8.5360061215295;;;8.625;90.73396274075719
15558;BME280;7880;50.110;9.372;2023-04-25T14:08:37;8.465415526885772;;;8.562;89.97468244641112
15558;BME280;7880;50.110;9.372;2023-04-25T14:13:52;8.480542078078724;;;8.437;92.51360096885146
15558;BME280;7880;50.110;9.372;2023-04-25T14:18:45;8.420035889022984;;;8.5;95.08205294723568
15558;BME280;7880;50.110;9.372;2023-04-25T14:23:51;8.394824989285553;;;8.437;94.91733022980173
15558;BME280;7880;50.110;9.372;2023-04-25T14:28:53;8.73769384911866;;;8.687;92.8389679386581
15558;BME280;7880;50.110;9.372;2023-04-25T14:34:32;8.959550887305522;;;8.937;91.34560040442261
15558;BME280;7880;50.110;9.372;2023-04-25T14:39:37;8.909128783695632;;;8.937;90.85417406586257
15558;BME280;7880;50.110;9.372;2023-04-25T14:44:42;8.878875535499537;;;8.812;92.18510246582169
15558;BME280;7880;50.110;9.372;2023-04-25T14:49:54;8.742736048274674;;;8.75;89.97279505069663
15558;BME280;7880;50.110;9.372;2023-04-25T14:54:51;8.55113268494606;;;8.625;89.77167189844424
15558;BME280;7880;50.110;9.372;2023-04-25T14:59:54;8.67214528657496;;;8.687;89.35391704483987
15558;BME280;7880;50.110;9.372;2023-04-25T15:04:58;8.697356266347924;;;8.687;92.99516868186102
15558;BME280;7880;50.110;9.372;2023-04-25T15:10:04;8.636849927116419;;;8.625;91.67957308715518
15558;BME280;7880;50.110;9.372;2023-04-25T15:15:11;8.621723348856904;;;8.687;87.54309492635527
15558;BME280;7880;50.110;9.372;2023-04-25T15:20:22;8.586428009771044;;;8.562;86.79804516634267
15558;BME280;7880;50.110;9.372;2023-04-25T15:25:18;8.435162432357902;;;8.5;88.24041411430028
15558;BME280;7880;50.110;9.372;2023-04-25T15:30:25;8.420035889022984;;;8.437;90.38064145464996
15558;BME280;7880;50.110;9.372;2023-04-25T15:35:32;8.30406581047573;;;8.375;90.87646460291978
15558;BME280;7880;50.110;9.372;2023-04-25T15:40:33;8.278854944207705;;;8.312;91.20132732644832
15558;BME280;7880;50.110;9.372;2023-04-25T15:45:44;8.273812771827215;;;8.25;92.78845992684894
15558;BME280;7880;50.110;9.372;2023-04-25T15:50:43;8.12758989939466;;;8.125;94.49092902081227
15558;BME280;7880;50.110;9.372;2023-04-25T15:55:47;8.162885053089122;;;8.187;93.22132798715373
15558;BME280;7880;50.110;9.372;2023-04-25T16:00:51;8.12254773574532;;;8.125;93.16916402798235
15558;BME280;7880;50.110;9.372;2023-04-25T16:05:56;8.208264557365329;;;8.187;92.28024150813036
15558;BME280;7880;50.110;9.372;2023-04-25T16:11:02;8.5360061215295;;;8.5;91.47904938963711
15558;BME280;7880;50.110;9.372;2023-04-25T16:16:04;8.425078069843584;;;8.5;90.63135577174128
15558;BME280;7880;50.110;9.372;2023-04-25T16:21:17;8.5360061215295;;;8.5;95.73272954269456
15558;BME280;7880;50.110;9.372;2023-04-25T16:26:22;8.324234508728841;;;8.375;94.12734379419874
15558;BME280;7880;50.110;9.372;2023-04-25T16:31:30;8.273812771827215;;;8.312;91.59639693454385
15558;BME280;7880;50.110;9.372;2023-04-25T16:36:32;8.30406581047573;;;8.312;89.4804399962693
15558;BME280;7880;50.110;9.372;2023-04-25T16:41:35;8.283897116879235;;;8.312;86.67904367731572
15558;BME280;7880;50.110;9.372;2023-04-25T16:46:40;8.26372842793935;;;8.25;88.39686823822164
15558;BME280;7880;50.110;9.372;2023-04-25T16:51:44;8.30406581047573;;;8.312;88.26104222026181
15558;BME280;7880;50.110;9.372;2023-04-25T16:56:51;8.15280072200694;;;8.187;85.1776811987442
15558;BME280;7880;50.110;9.372;2023-04-25T17:01:52;8.062041794654215;;;8.062;85.69389431183997
15558;BME280;7880;50.110;9.372;2023-04-25T17:06:56;7.991451583016897;;;8.0;83.50107514820013
15558;BME280;7880;50.110;9.372;2023-04-25T17:12:03;7.941030038200552;;;7.937;83.99091089158354
15558;BME280;7880;50.110;9.372;2023-04-25T17:17:11;7.830102742050076;;;7.875;84.4998005625947
15558;BME280;7880;50.110;9.372;2023-04-25T17:23:19;7.855313478806056;;;7.875;84.40881646147254
15558;BME280;7880;50.110;9.372;2023-04-25T17:28:31;7.87548207344953;;;7.875;85.8443255945124
15558;BME280;7880;50.110;9.372;2023-04-25T17:33:28;7.809934157883982;;;7.812;87.93044346290097
15558;BME280;7880;50.110;9.372;2023-04-25T17:38:33;7.749428433325375;;;7.75;90.5978824783831
15558;BME280;7880;50.110;9.372;2023-04-25T17:43:37;7.577995774667943;;;7.625;85.73174997267809
15558;BME280;7880;50.110;9.372;2023-04-25T17:48:40;7.628417109936708;;;7.625;88.07507812273018
15558;BME280;7880;50.110;9.372;2023-04-25T17:53:45;7.56286937976256;;;7.562;89.77861239669623
15558;BME280;7880;50.110;9.372;2023-04-25T17:58:49;7.572953642741777;;;7.562;91.64644188202723
15558;BME280;7880;50.110;9.372;2023-04-25T18:03:54;7.5578272487095095;;;7.562;93.07354819047454
15558;BME280;7880;50.110;9.372;2023-04-25T18:09:15;7.552785117947496;;;7.562;93.03131619426098
15558;BME280;7880;50.110;9.372;2023-04-25T18:14:14;7.532616597809829;;;7.562;94.92955336647746
15558;BME280;7880;50.110;9.372;2023-04-25T18:19:21;7.467068939522141;;;7.437;95.32030205632901
15558;BME280;7880;50.110;9.372;2023-04-25T18:24:22;7.416647697385633;;;7.437;96.4705762074348
15558;BME280;7880;50.110;9.372;2023-04-25T18:29:24;7.3763107246311845;;;7.375;99.63840810196227
15558;BME280;7880;50.110;9.372;2023-04-25T18:34:11;7.164541923260549;;;7.187;100.0
15558;BME280;7880;50.110;9.372;2023-04-25T18:39:15;6.998152510914951;;;7.0;100.0
15558;BME280;7880;50.110;9.372;2023-04-25T18:44:18;6.9275631590047855;;;6.875;100.0
15558;BME280;7880;50.110;9.372;2023-04-25T18:49:25;6.897310597077012;;;6.75;100.0
15558;BME280;7880;50.110;9.372;2023-04-25T18:54:28;6.816637149825692;;;6.625;100.0
15558;BME280;7880;50.110;9.372;2023-04-25T18:59:32;6.6502484001743145;;;6.562;100.0
15558;BME280;7880;50.110;9.372;2023-04-25T19:04:39;6.493944105878472;;;6.437;100.0
15558;BME280;7880;50.110;9.372;2023-04-25T19:09:40;6.418313096143538;;;6.187;100.0
15558;BME280;7880;50.110;9.372;2023-04-25T19:14:45;6.448565492179478;;;6.187;100.0
15558;BME280;7880;50.110;9.372;2023-04-25T19:19:50;6.5241965281078595;;;6.25;100.0
15558;BME280;7880;50.110;9.372;2023-04-25T19:24:53;6.4132710311561825;;;6.187;100.0
15558;BME280;7880;50.110;9.372;2023-04-25T19:30:09;5.939318221830763;;;5.812;100.0
15558;BME280;7880;50.110;9.372;2023-04-25T19:35:05;6.004864733718568;;;5.812;100.0
15558;BME280;7880;50.110;9.372;2023-04-25T19:40:11;5.934276184492046;;;5.687;100.0
15558;BME280;7880;50.110;9.372;2023-04-25T19:45:11;5.7426789812801875;;;5.5;100.0
15558;BME280;7880;50.110;9.372;2023-04-25T19:50:14;5.77293114332133;;;5.25;100.0
15558;BME280;7880;50.110;9.372;2023-04-25T19:55:18;5.762847088143462;;;5.312;100.0
15558;BME280;7880;50.110;9.372;2023-04-25T20:00:24;5.863687692309031;;;5.562;100.0
15558;BME280;7880;50.110;9.372;2023-04-25T20:05:26;5.67209064392955;;;5.437;100.0
15558;BME280;7880;50.110;9.372;2023-04-25T20:10:29;5.314107811287977;;;5.062;100.0
15558;BME280;7880;50.110;9.372;2023-04-25T20:15:35;5.55108219832764;;;5.187;100.0
15558;BME280;7880;50.110;9.372;2023-04-25T20:20:43;5.47545200495515;;;5.125;100.0
15558;BME280;7880;50.110;9.372;2023-04-25T20:25:45;5.3090658100380095;;;4.812;100.0
15558;BME280;7880;50.110;9.372;2023-04-25T20:30:52;5.087218043167377;;;4.687;100.0
15558;BME280;7880;50.110;9.372;2023-04-25T20:35:53;5.046882146090502;;;4.5;100.0
15558;BME280;7880;50.110;9.372;2023-04-25T20:41:03;4.951084465184249;;;4.437;100.0
15558;BME280;7880;50.110;9.372;2023-04-25T20:46:03;4.693943841202417;;;4.375;100.0
15558;BME280;7880;50.110;9.372;2023-04-25T20:51:06;4.724195640027756;;;4.25;100.0
15558;BME280;7880;50.110;9.372;2023-04-25T20:56:12;4.714111705921823;;;4.375;100.0
15558;BME280;7880;50.110;9.372;2023-04-25T21:01:16;4.567894792207516;;;4.187;100.0
15558;BME280;7880;50.110;9.372;2023-04-25T21:06:22;4.512433268275345;;;4.062;100.0
15558;BME280;7880;50.110;9.372;2023-04-25T21:11:23;4.482181542791659;;;4.187;100.0
15558;BME280;7880;50.110;9.372;2023-04-25T21:16:35;4.280503640655661;;;3.937;100.0
15558;BME280;7880;50.110;9.372;2023-04-25T21:21:32;4.285545582533814;;;3.812;100.0
15558;BME280;7880;50.110;9.372;2023-04-25T21:26:36;4.0485746288730295;;;3.687;100.0
15558;BME280;7880;50.110;9.372;2023-04-25T21:31:53;4.053616557363421;;;3.562;100.0
15558;BME280;7880;50.110;9.372;2023-04-25T21:36:44;4.023364990786649;;;3.625;100.0
15558;BME280;7880;50.110;9.372;2023-04-25T21:41:51;3.877149233367527;;;3.562;100.0
15558;BME280;7880;50.110;9.372;2023-04-25T21:46:56;3.7863947484234814;;;3.437;100.0
15558;BME280;7880;50.110;9.372;2023-04-25T21:51:59;3.322539964696625;;;2.875;100.0
15558;BME280;7880;50.110;9.372;2023-04-25T21:57:02;3.322539964696625;;;3.0;100.0
15558;BME280;7880;50.110;9.372;2023-04-25T22:02:06;3.453629110386828;;;3.125;100.0
15558;BME280;7880;50.110;9.372;2023-04-25T22:07:09;3.473796688724542;;;3.125;100.0
15558;BME280;7880;50.110;9.372;2023-04-25T22:12:17;3.3527912885474507;;;2.937;100.0
15558;BME280;7880;50.110;9.372;2023-04-25T22:17:27;3.2771629985654727;;;2.937;100.0
15558;BME280;7880;50.110;9.372;2023-04-25T22:22:24;3.0805297510756646;;;2.812;100.0
15558;BME280;7880;50.110;9.372;2023-04-25T22:27:27;3.241869818983832;;;2.875;100.0
15558;BME280;7880;50.110;9.372;2023-04-25T22:32:35;3.040194780664751;;;2.687;100.0
15558;BME280;7880;50.110;9.372;2023-04-25T22:37:42;3.1006972432660405;;;2.625;100.0
15558;BME280;7880;50.110;9.372;2023-04-25T22:42:44;3.020027302444214;;;2.625;100.0
15558;BME280;7880;50.110;9.372;2023-04-25T22:47:48;2.707431985490257;;;2.312;100.0
15558;BME280;7880;50.110;9.372;2023-04-25T22:52:55;2.7729760721558705;;;2.312;100.0
15558;BME280;7880;50.110;9.372;2023-04-25T22:57:58;2.9544830303872005;;;2.5;100.0
15558;BME280;7880;50.110;9.372;2023-04-25T23:03:03;2.4099632872501386;;;2.062;100.0
15558;BME280;7880;50.110;9.372;2023-04-25T23:08:06;2.006617517978884;;;1.875;100.0
15558;BME280;7880;50.110;9.372;2023-04-25T23:13:12;2.727599391533295;;;2.125;100.0
15558;BME280;7880;50.110;9.372;2023-04-25T23:18:18;2.657013490755344;;;2.25;100.0
15558;BME280;7880;50.110;9.372;2023-04-25T23:23:21;2.54105106331408;;;2.25;100.0
15558;BME280;7880;50.110;9.372;2023-04-25T23:28:38;2.5813858032226564;;;2.187;100.0
15558;BME280;7880;50.110;9.372;2023-04-25T23:33:32;2.707431985490257;;;2.375;100.0
15558;BME280;7880;50.110;9.372;2023-04-25T23:38:22;2.420046955347061;;;2.062;100.0